sensor_id;sensor_type;location;lat;lon;timestamp;temperature;humidity
16076;DHT22;8142;48.242;11.644;2023-03-24T00:00:06;12.30;99.90
16076;DHT22;8142;48.242;11.644;2023-03-24T00:02:37;12.30;99.90
16076;DHT22;8142;48.242;11.644;2023-03-24T00:05:11;12.30;99.90
16076;DHT22;8142;48.242;11.644;2023-03-24T00:07:38;12.20;99.90
16076;DHT22;8142;48.242;11.644;2023-03-24T00:10:16;12.20;99.90
16076;DHT22;8142;48.242;11.644;2023-03-24T00:12:43;12.20;99.90
16076;DHT22;8142;48.242;11.644;2023-03-24T00:15:12;12.20;99.90
16076;DHT22;8142;48.242;11.644;2023-03-24T00:17:39;12.20;99.90
16076;DHT22;8142;48.242;11.644;2023-03-24T00:20:08;12.20;99.90
16076;DHT22;8142;48.242;11.644;2023-03-24T00:22:44;12.20;99.90
16076;DHT22;8142;48.242;11.644;2023-03-24T00:25:20;12.10;99.90
16076;DHT22;8142;48.242;11.644;2023-03-24T00:27:49;12.10;99.90
16076;DHT22;8142;48.242;11.644;2023-03-24T00:30:17;12.10;99.90
16076;DHT22;8142;48.242;11.644;2023-03-24T00:32:43;12.10;99.90
16076;DHT22;8142;48.242;11.644;2023-03-24T00:35:12;12.10;99.90
16076;DHT22;8142;48.242;11.644;2023-03-24T00:37:40;12.10;99.90
16076;DHT22;8142;48.242;11.644;2023-03-24T00:40:09;12.10;99.90
16076;DHT22;8142;48.242;11.644;2023-03-24T00:42:38;12.10;99.90
16076;DHT22;8142;48.242;11.644;2023-03-24T00:45:06;12.00;99.90
16076;DHT22;8142;48.242;11.644;2023-03-24T00:47:34;12.00;99.90
16076;DHT22;8142;48.242;11.644;2023-03-24T00:50:08;12.00;99.90
16076;DHT22;8142;48.242;11.644;2023-03-24T00:52:35;12.00;99.90
16076;DHT22;8142;48.242;11.644;2023-03-24T00:55:04;12.00;99.90
16076;DHT22;8142;48.242;11.644;2023-03-24T00:57:31;12.00;99.90
16076;DHT22;8142;48.242;11.644;2023-03-24T01:00:03;12.00;99.90
16076;DHT22;8142;48.242;11.644;2023-03-24T01:02:35;12.00;99.90
16076;DHT22;8142;48.242;11.644;2023-03-24T01:05:02;12.00;99.90
16076;DHT22;8142;48.242;11.644;2023-03-24T01:07:29;12.00;99.90
16076;DHT22;8142;48.242;11.644;2023-03-24T01:09:56;12.00;99.90
16076;DHT22;8142;48.242;11.644;2023-03-24T01:12:31;12.00;99.90
16076;DHT22;8142;48.242;11.644;2023-03-24T01:14:59;12.00;99.90
16076;DHT22;8142;48.242;11.644;2023-03-24T01:17:26;12.00;99.90
16076;DHT22;8142;48.242;11.644;2023-03-24T01:19:52;12.00;99.90
16076;DHT22;8142;48.242;11.644;2023-03-24T01:22:19;12.00;99.90
16076;DHT22;8142;48.242;11.644;2023-03-24T01:24:46;12.10;99.90
16076;DHT22;8142;48.242;11.644;2023-03-24T01:27:12;12.00;99.90
16076;DHT22;8142;48.242;11.644;2023-03-24T01:29:38;11.90;99.90
16076;DHT22;8142;48.242;11.644;2023-03-24T01:32:04;12.00;99.90
16076;DHT22;8142;48.242;11.644;2023-03-24T01:34:31;12.00;99.90
16076;DHT22;8142;48.242;11.644;2023-03-24T01:36:58;12.00;99.90
16076;DHT22;8142;48.242;11.644;2023-03-24T01:39:24;12.00;99.90
16076;DHT22;8142;48.242;11.644;2023-03-24T01:41:50;11.90;99.90
16076;DHT22;8142;48.242;11.644;2023-03-24T01:46:55;11.90;99.90
16076;DHT22;8142;48.242;11.644;2023-03-24T01:49:24;12.00;99.90
16076;DHT22;8142;48.242;11.644;2023-03-24T01:51:54;11.90;99.90
16076;DHT22;8142;48.242;11.644;2023-03-24T01:54:34;11.90;99.90
16076;DHT22;8142;48.242;11.644;2023-03-24T01:57:05;11.90;99.90
16076;DHT22;8142;48.242;11.644;2023-03-24T01:59:35;11.90;99.90
16076;DHT22;8142;48.242;11.644;2023-03-24T02:02:04;11.90;99.90
16076;DHT22;8142;48.242;11.644;2023-03-24T02:04:34;11.80;99.90
16076;DHT22;8142;48.242;11.644;2023-03-24T02:07:11;11.90;99.90
16076;DHT22;8142;48.242;11.644;2023-03-24T02:09:38;11.90;99.90
16076;DHT22;8142;48.242;11.644;2023-03-24T02:12:04;11.90;99.90
16076;DHT22;8142;48.242;11.644;2023-03-24T02:14:30;12.00;99.90
16076;DHT22;8142;48.242;11.644;2023-03-24T02:22:47;12.00;99.90
16076;DHT22;8142;48.242;11.644;2023-03-24T02:53:17;11.90;99.90
16076;DHT22;8142;48.242;11.644;2023-03-24T02:56:14;11.90;99.90
16076;DHT22;8142;48.242;11.644;2023-03-24T02:59:05;12.00;99.90
16076;DHT22;8142;48.242;11.644;2023-03-24T03:01:37;11.90;99.90
16076;DHT22;8142;48.242;11.644;2023-03-24T03:04:14;12.00;99.90
16076;DHT22;8142;48.242;11.644;2023-03-24T03:06:43;11.90;99.90
16076;DHT22;8142;48.242;11.644;2023-03-24T03:09:15;12.00;99.90
16076;DHT22;8142;48.242;11.644;2023-03-24T03:11:47;11.90;99.90
16076;DHT22;8142;48.242;11.644;2023-03-24T03:16:53;12.00;99.90
16076;DHT22;8142;48.242;11.644;2023-03-24T03:19:32;11.90;99.90
16076;DHT22;8142;48.242;11.644;2023-03-24T03:22:01;11.90;99.90
16076;DHT22;8142;48.242;11.644;2023-03-24T03:24:37;11.90;99.90
16076;DHT22;8142;48.242;11.644;2023-03-24T03:27:31;11.90;99.90
16076;DHT22;8142;48.242;11.644;2023-03-24T03:30:33;11.90;99.90
16076;DHT22;8142;48.242;11.644;2023-03-24T03:33:00;11.90;99.90
16076;DHT22;8142;48.242;11.644;2023-03-24T03:35:41;11.90;99.90
16076;DHT22;8142;48.242;11.644;2023-03-24T03:38:17;11.90;99.90
16076;DHT22;8142;48.242;11.644;2023-03-24T03:40:54;11.90;99.90
16076;DHT22;8142;48.242;11.644;2023-03-24T03:43:21;11.90;99.90
16076;DHT22;8142;48.242;11.644;2023-03-24T03:45:47;11.90;99.90
16076;DHT22;8142;48.242;11.644;2023-03-24T03:48:14;11.90;99.90
16076;DHT22;8142;48.242;11.644;2023-03-24T03:50:41;11.90;99.90
16076;DHT22;8142;48.242;11.644;2023-03-24T03:53:07;11.90;99.90
16076;DHT22;8142;48.242;11.644;2023-03-24T03:55:34;11.90;99.90
16076;DHT22;8142;48.242;11.644;2023-03-24T03:58:02;11.90;99.90
16076;DHT22;8142;48.242;11.644;2023-03-24T04:00:29;11.90;99.90
16076;DHT22;8142;48.242;11.644;2023-03-24T04:05:57;11.80;99.90
16076;DHT22;8142;48.242;11.644;2023-03-24T04:14:04;11.40;99.90
16076;DHT22;8142;48.242;11.644;2023-03-24T04:19:34;11.20;99.90
16076;DHT22;8142;48.242;11.644;2023-03-24T04:27:11;10.90;99.90
16076;DHT22;8142;48.242;11.644;2023-03-24T04:29:52;10.80;99.90
16076;DHT22;8142;48.242;11.644;2023-03-24T04:34:56;10.70;99.90
16076;DHT22;8142;48.242;11.644;2023-03-24T04:37:29;10.60;99.90
16076;DHT22;8142;48.242;11.644;2023-03-24T04:40:07;10.60;99.90
16076;DHT22;8142;48.242;11.644;2023-03-24T04:42:38;10.50;99.90
16076;DHT22;8142;48.242;11.644;2023-03-24T04:45:06;10.40;99.90
16076;DHT22;8142;48.242;11.644;2023-03-24T04:47:37;10.40;99.90
16076;DHT22;8142;48.242;11.644;2023-03-24T04:50:08;10.30;99.90
16076;DHT22;8142;48.242;11.644;2023-03-24T04:52:37;10.20;99.90
16076;DHT22;8142;48.242;11.644;2023-03-24T04:58:00;10.10;99.90
16076;DHT22;8142;48.242;11.644;2023-03-24T05:00:26;10.10;99.90
16076;DHT22;8142;48.242;11.644;2023-03-24T05:02:52;10.10;99.90
16076;DHT22;8142;48.242;11.644;2023-03-24T05:05:18;10.20;99.90
16076;DHT22;8142;48.242;11.644;2023-03-24T05:07:44;10.30;99.90
16076;DHT22;8142;48.242;11.644;2023-03-24T05:10:10;10.40;99.90
16076;DHT22;8142;48.242;11.644;2023-03-24T05:12:36;10.50;99.90
16076;DHT22;8142;48.242;11.644;2023-03-24T05:15:02;10.50;99.90
16076;DHT22;8142;48.242;11.644;2023-03-24T05:17:28;10.60;99.90
16076;DHT22;8142;48.242;11.644;2023-03-24T05:19:54;10.70;99.90
16076;DHT22;8142;48.242;11.644;2023-03-24T05:22:20;10.80;99.90
16076;DHT22;8142;48.242;11.644;2023-03-24T05:24:46;10.80;99.90
16076;DHT22;8142;48.242;11.644;2023-03-24T05:27:12;10.90;99.90
16076;DHT22;8142;48.242;11.644;2023-03-24T05:29:38;11.00;99.90
16076;DHT22;8142;48.242;11.644;2023-03-24T05:32:04;11.10;99.90
16076;DHT22;8142;48.242;11.644;2023-03-24T05:34:30;11.00;99.90
16076;DHT22;8142;48.242;11.644;2023-03-24T05:36:56;11.20;99.90
16076;DHT22;8142;48.242;11.644;2023-03-24T05:39:21;11.30;99.90
16076;DHT22;8142;48.242;11.644;2023-03-24T05:41:47;11.40;99.90
16076;DHT22;8142;48.242;11.644;2023-03-24T05:44:13;11.60;99.90
16076;DHT22;8142;48.242;11.644;2023-03-24T05:46:39;11.80;99.90
16076;DHT22;8142;48.242;11.644;2023-03-24T05:49:05;12.00;99.90
16076;DHT22;8142;48.242;11.644;2023-03-24T05:51:31;12.20;99.90
16076;DHT22;8142;48.242;11.644;2023-03-24T05:53:57;12.30;99.90
16076;DHT22;8142;48.242;11.644;2023-03-24T05:56:23;12.40;99.90
16076;DHT22;8142;48.242;11.644;2023-03-24T05:58:49;12.50;99.90
16076;DHT22;8142;48.242;11.644;2023-03-24T06:01:16;12.60;99.90
16076;DHT22;8142;48.242;11.644;2023-03-24T06:03:43;12.70;99.90
16076;DHT22;8142;48.242;11.644;2023-03-24T06:06:09;12.70;99.90
16076;DHT22;8142;48.242;11.644;2023-03-24T06:08:41;12.70;99.90
16076;DHT22;8142;48.242;11.644;2023-03-24T06:11:10;12.70;99.90
16076;DHT22;8142;48.242;11.644;2023-03-24T06:13:35;12.70;99.90
16076;DHT22;8142;48.242;11.644;2023-03-24T06:16:01;12.50;99.90
16076;DHT22;8142;48.242;11.644;2023-03-24T06:18:27;12.40;99.90
16076;DHT22;8142;48.242;11.644;2023-03-24T06:20:55;12.30;99.90
16076;DHT22;8142;48.242;11.644;2023-03-24T06:23:22;12.20;99.90
16076;DHT22;8142;48.242;11.644;2023-03-24T06:25:51;12.10;99.90
16076;DHT22;8142;48.242;11.644;2023-03-24T06:28:18;11.90;99.90
16076;DHT22;8142;48.242;11.644;2023-03-24T06:30:44;11.80;99.90
16076;DHT22;8142;48.242;11.644;2023-03-24T06:33:14;11.70;99.90
16076;DHT22;8142;48.242;11.644;2023-03-24T06:35:40;11.60;99.90
16076;DHT22;8142;48.242;11.644;2023-03-24T06:38:07;11.60;99.90
16076;DHT22;8142;48.242;11.644;2023-03-24T06:40:33;11.50;99.90
16076;DHT22;8142;48.242;11.644;2023-03-24T06:42:59;11.50;99.90
16076;DHT22;8142;48.242;11.644;2023-03-24T06:45:25;11.50;99.90
16076;DHT22;8142;48.242;11.644;2023-03-24T06:47:52;11.50;99.90
16076;DHT22;8142;48.242;11.644;2023-03-24T06:50:21;11.40;99.90
16076;DHT22;8142;48.242;11.644;2023-03-24T06:52:47;11.40;99.90
16076;DHT22;8142;48.242;11.644;2023-03-24T06:55:13;11.40;99.90
16076;DHT22;8142;48.242;11.644;2023-03-24T06:57:39;11.40;99.90
16076;DHT22;8142;48.242;11.644;2023-03-24T07:00:05;11.40;99.90
16076;DHT22;8142;48.242;11.644;2023-03-24T07:02:33;11.40;99.90
16076;DHT22;8142;48.242;11.644;2023-03-24T07:05:03;11.40;99.90
16076;DHT22;8142;48.242;11.644;2023-03-24T07:07:36;11.40;99.90
16076;DHT22;8142;48.242;11.644;2023-03-24T07:10:03;11.50;99.90
16076;DHT22;8142;48.242;11.644;2023-03-24T07:12:29;11.50;99.90
16076;DHT22;8142;48.242;11.644;2023-03-24T07:14:56;11.50;99.90
16076;DHT22;8142;48.242;11.644;2023-03-24T07:17:22;11.60;99.90
16076;DHT22;8142;48.242;11.644;2023-03-24T07:19:48;11.60;99.90
16076;DHT22;8142;48.242;11.644;2023-03-24T07:22:14;11.60;99.90
16076;DHT22;8142;48.242;11.644;2023-03-24T07:24:40;11.70;99.90
16076;DHT22;8142;48.242;11.644;2023-03-24T07:27:06;11.70;99.90
16076;DHT22;8142;48.242;11.644;2023-03-24T07:29:32;11.70;99.90
16076;DHT22;8142;48.242;11.644;2023-03-24T07:31:58;11.70;99.90
16076;DHT22;8142;48.242;11.644;2023-03-24T07:34:26;11.70;99.90
16076;DHT22;8142;48.242;11.644;2023-03-24T07:36:52;11.80;99.90
16076;DHT22;8142;48.242;11.644;2023-03-24T07:39:19;11.70;99.90
16076;DHT22;8142;48.242;11.644;2023-03-24T07:41:46;11.80;99.90
16076;DHT22;8142;48.242;11.644;2023-03-24T07:44:12;11.80;99.90
16076;DHT22;8142;48.242;11.644;2023-03-24T07:46:38;11.80;99.90
16076;DHT22;8142;48.242;11.644;2023-03-24T07:49:04;11.90;99.90
16076;DHT22;8142;48.242;11.644;2023-03-24T07:51:31;11.80;99.90
16076;DHT22;8142;48.242;11.644;2023-03-24T07:53:57;11.90;99.90
16076;DHT22;8142;48.242;11.644;2023-03-24T07:56:23;11.90;99.90
16076;DHT22;8142;48.242;11.644;2023-03-24T07:58:49;11.90;99.90
16076;DHT22;8142;48.242;11.644;2023-03-24T08:01:15;12.00;99.90
16076;DHT22;8142;48.242;11.644;2023-03-24T08:03:41;11.90;99.90
16076;DHT22;8142;48.242;11.644;2023-03-24T08:06:07;12.00;99.90
16076;DHT22;8142;48.242;11.644;2023-03-24T08:08:34;12.00;99.90
16076;DHT22;8142;48.242;11.644;2023-03-24T08:11:00;12.00;99.90
16076;DHT22;8142;48.242;11.644;2023-03-24T08:13:25;12.00;99.90
16076;DHT22;8142;48.242;11.644;2023-03-24T08:15:51;12.00;99.90
16076;DHT22;8142;48.242;11.644;2023-03-24T08:18:19;12.10;99.90
16076;DHT22;8142;48.242;11.644;2023-03-24T08:20:47;12.00;99.90
16076;DHT22;8142;48.242;11.644;2023-03-24T08:23:13;12.10;99.90
16076;DHT22;8142;48.242;11.644;2023-03-24T08:25:39;12.10;99.90
16076;DHT22;8142;48.242;11.644;2023-03-24T08:28:05;12.10;99.90
16076;DHT22;8142;48.242;11.644;2023-03-24T08:30:32;12.10;99.90
16076;DHT22;8142;48.242;11.644;2023-03-24T08:33:00;12.20;99.90
16076;DHT22;8142;48.242;11.644;2023-03-24T08:35:31;12.20;99.90
16076;DHT22;8142;48.242;11.644;2023-03-24T08:37:59;12.30;99.90
16076;DHT22;8142;48.242;11.644;2023-03-24T08:40:27;12.30;99.90
16076;DHT22;8142;48.242;11.644;2023-03-24T08:42:57;12.30;99.90
16076;DHT22;8142;48.242;11.644;2023-03-24T08:45:25;12.30;99.90
16076;DHT22;8142;48.242;11.644;2023-03-24T08:47:52;12.40;99.90
16076;DHT22;8142;48.242;11.644;2023-03-24T08:50:20;12.40;99.90
16076;DHT22;8142;48.242;11.644;2023-03-24T08:52:47;12.40;99.90
16076;DHT22;8142;48.242;11.644;2023-03-24T08:55:14;12.50;99.90
16076;DHT22;8142;48.242;11.644;2023-03-24T08:57:41;12.40;99.90
16076;DHT22;8142;48.242;11.644;2023-03-24T09:00:07;12.40;99.90
16076;DHT22;8142;48.242;11.644;2023-03-24T09:02:43;12.50;99.90
16076;DHT22;8142;48.242;11.644;2023-03-24T09:05:09;12.40;99.90
16076;DHT22;8142;48.242;11.644;2023-03-24T09:07:36;12.40;99.90
16076;DHT22;8142;48.242;11.644;2023-03-24T09:10:03;12.40;99.90
16076;DHT22;8142;48.242;11.644;2023-03-24T09:12:29;12.40;99.90
16076;DHT22;8142;48.242;11.644;2023-03-24T09:14:55;12.40;99.90
16076;DHT22;8142;48.242;11.644;2023-03-24T09:17:21;12.40;99.90
16076;DHT22;8142;48.242;11.644;2023-03-24T09:19:47;12.40;99.90
16076;DHT22;8142;48.242;11.644;2023-03-24T09:22:13;12.40;99.90
16076;DHT22;8142;48.242;11.644;2023-03-24T09:24:38;12.40;99.90
16076;DHT22;8142;48.242;11.644;2023-03-24T09:27:04;12.40;99.90
16076;DHT22;8142;48.242;11.644;2023-03-24T09:29:31;12.50;99.90
16076;DHT22;8142;48.242;11.644;2023-03-24T09:31:57;12.50;99.90
16076;DHT22;8142;48.242;11.644;2023-03-24T09:34:24;12.50;99.90
16076;DHT22;8142;48.242;11.644;2023-03-24T09:36:50;12.60;99.90
16076;DHT22;8142;48.242;11.644;2023-03-24T09:39:16;12.70;99.90
16076;DHT22;8142;48.242;11.644;2023-03-24T09:41:43;12.60;99.90
16076;DHT22;8142;48.242;11.644;2023-03-24T09:44:33;12.60;99.90
16076;DHT22;8142;48.242;11.644;2023-03-24T09:47:04;12.70;99.90
16076;DHT22;8142;48.242;11.644;2023-03-24T09:49:36;12.70;99.90
16076;DHT22;8142;48.242;11.644;2023-03-24T09:52:10;12.70;99.90
16076;DHT22;8142;48.242;11.644;2023-03-24T09:57:21;12.70;99.90
16076;DHT22;8142;48.242;11.644;2023-03-24T09:59:48;12.80;99.90
16076;DHT22;8142;48.242;11.644;2023-03-24T10:02:18;12.80;99.90
16076;DHT22;8142;48.242;11.644;2023-03-24T10:04:44;12.70;99.90
16076;DHT22;8142;48.242;11.644;2023-03-24T10:07:42;12.70;99.90
16076;DHT22;8142;48.242;11.644;2023-03-24T10:10:47;12.70;99.90
16076;DHT22;8142;48.242;11.644;2023-03-24T10:13:16;12.70;99.90
16076;DHT22;8142;48.242;11.644;2023-03-24T10:15:51;12.60;99.90
16076;DHT22;8142;48.242;11.644;2023-03-24T10:18:51;12.70;99.90
16076;DHT22;8142;48.242;11.644;2023-03-24T10:21:19;12.70;99.90
16076;DHT22;8142;48.242;11.644;2023-03-24T10:24:09;12.70;99.90
16076;DHT22;8142;48.242;11.644;2023-03-24T10:26:46;12.70;99.90
16076;DHT22;8142;48.242;11.644;2023-03-24T10:29:27;12.70;99.90
16076;DHT22;8142;48.242;11.644;2023-03-24T10:32:01;12.70;99.90
16076;DHT22;8142;48.242;11.644;2023-03-24T10:34:30;12.70;99.90
16076;DHT22;8142;48.242;11.644;2023-03-24T10:37:00;12.70;99.90
16076;DHT22;8142;48.242;11.644;2023-03-24T10:39:28;12.70;99.90
16076;DHT22;8142;48.242;11.644;2023-03-24T10:41:56;12.70;99.90
16076;DHT22;8142;48.242;11.644;2023-03-24T10:44:23;12.70;99.90
16076;DHT22;8142;48.242;11.644;2023-03-24T10:46:52;12.70;99.90
16076;DHT22;8142;48.242;11.644;2023-03-24T10:49:20;12.80;99.90
16076;DHT22;8142;48.242;11.644;2023-03-24T10:51:52;12.80;99.90
16076;DHT22;8142;48.242;11.644;2023-03-24T10:59:28;12.80;99.90
16076;DHT22;8142;48.242;11.644;2023-03-24T11:02:08;12.80;99.90
16076;DHT22;8142;48.242;11.644;2023-03-24T11:04:42;12.90;99.90
16076;DHT22;8142;48.242;11.644;2023-03-24T11:07:16;12.90;99.90
16076;DHT22;8142;48.242;11.644;2023-03-24T11:09:44;12.90;99.90
16076;DHT22;8142;48.242;11.644;2023-03-24T11:12:24;12.90;99.90
16076;DHT22;8142;48.242;11.644;2023-03-24T11:14:50;13.00;99.90
16076;DHT22;8142;48.242;11.644;2023-03-24T11:17:22;13.00;99.90
16076;DHT22;8142;48.242;11.644;2023-03-24T11:19:50;13.10;99.90
16076;DHT22;8142;48.242;11.644;2023-03-24T11:22:17;13.10;99.90
16076;DHT22;8142;48.242;11.644;2023-03-24T11:24:48;13.10;99.90
16076;DHT22;8142;48.242;11.644;2023-03-24T11:27:15;13.10;99.90
16076;DHT22;8142;48.242;11.644;2023-03-24T11:29:50;13.10;99.90
16076;DHT22;8142;48.242;11.644;2023-03-24T11:32:23;13.10;99.90
16076;DHT22;8142;48.242;11.644;2023-03-24T11:34:56;13.10;99.90
16076;DHT22;8142;48.242;11.644;2023-03-24T11:37:27;13.10;99.90
16076;DHT22;8142;48.242;11.644;2023-03-24T11:40:15;13.20;99.90
16076;DHT22;8142;48.242;11.644;2023-03-24T11:42:47;13.10;99.90
16076;DHT22;8142;48.242;11.644;2023-03-24T11:47:55;13.20;99.90
16076;DHT22;8142;48.242;11.644;2023-03-24T11:50:29;13.20;99.90
16076;DHT22;8142;48.242;11.644;2023-03-24T11:58:25;13.40;99.90
16076;DHT22;8142;48.242;11.644;2023-03-24T12:00:56;13.50;99.90
16076;DHT22;8142;48.242;11.644;2023-03-24T12:08:51;13.90;99.90
16076;DHT22;8142;48.242;11.644;2023-03-24T12:14:08;14.30;99.90
16076;DHT22;8142;48.242;11.644;2023-03-24T12:16:47;14.50;99.90
16076;DHT22;8142;48.242;11.644;2023-03-24T12:22:38;14.80;99.90
16076;DHT22;8142;48.242;11.644;2023-03-24T12:25:17;15.00;99.90
16076;DHT22;8142;48.242;11.644;2023-03-24T12:31:12;15.10;99.90
16076;DHT22;8142;48.242;11.644;2023-03-24T12:33:58;15.10;99.90
16076;DHT22;8142;48.242;11.644;2023-03-24T12:39:34;15.10;99.90
16076;DHT22;8142;48.242;11.644;2023-03-24T12:42:10;15.10;99.90
16076;DHT22;8142;48.242;11.644;2023-03-24T12:47:23;15.10;99.90
16076;DHT22;8142;48.242;11.644;2023-03-24T12:53:03;15.10;99.90
16076;DHT22;8142;48.242;11.644;2023-03-24T12:58:08;15.00;99.90
16076;DHT22;8142;48.242;11.644;2023-03-24T13:01:01;15.00;99.90
16076;DHT22;8142;48.242;11.644;2023-03-24T13:03:41;15.00;99.90
16076;DHT22;8142;48.242;11.644;2023-03-24T13:06:28;14.90;99.90
16076;DHT22;8142;48.242;11.644;2023-03-24T13:26:17;14.30;99.90
16076;DHT22;8142;48.242;11.644;2023-03-24T13:31:15;14.20;99.90
16076;DHT22;8142;48.242;11.644;2023-03-24T13:33:41;14.20;99.90
16076;DHT22;8142;48.242;11.644;2023-03-24T13:36:38;14.10;99.90
16076;DHT22;8142;48.242;11.644;2023-03-24T13:39:13;14.00;99.90
16076;DHT22;8142;48.242;11.644;2023-03-24T13:41:40;13.90;99.90
16076;DHT22;8142;48.242;11.644;2023-03-24T13:44:18;13.90;99.90
16076;DHT22;8142;48.242;11.644;2023-03-24T13:49:25;13.80;99.90
16076;DHT22;8142;48.242;11.644;2023-03-24T13:51:51;13.80;99.90
16076;DHT22;8142;48.242;11.644;2023-03-24T13:54:26;13.80;99.90
16076;DHT22;8142;48.242;11.644;2023-03-24T13:56:55;13.70;99.90
16076;DHT22;8142;48.242;11.644;2023-03-24T14:04:48;13.80;99.90
16076;DHT22;8142;48.242;11.644;2023-03-24T14:15:33;13.90;99.90
16076;DHT22;8142;48.242;11.644;2023-03-24T14:21:05;13.90;99.90
16076;DHT22;8142;48.242;11.644;2023-03-24T14:23:39;13.90;99.90
16076;DHT22;8142;48.242;11.644;2023-03-24T14:26:13;13.90;99.90
16076;DHT22;8142;48.242;11.644;2023-03-24T14:28:48;13.90;99.90
16076;DHT22;8142;48.242;11.644;2023-03-24T14:41:40;14.00;99.90
16076;DHT22;8142;48.242;11.644;2023-03-24T14:44:06;14.00;99.90
16076;DHT22;8142;48.242;11.644;2023-03-24T14:46:38;14.00;99.90
16076;DHT22;8142;48.242;11.644;2023-03-24T14:52:23;13.90;99.90
16076;DHT22;8142;48.242;11.644;2023-03-24T14:54:57;13.90;99.90
16076;DHT22;8142;48.242;11.644;2023-03-24T15:00:12;13.80;99.90
16076;DHT22;8142;48.242;11.644;2023-03-24T15:02:48;13.80;99.90
16076;DHT22;8142;48.242;11.644;2023-03-24T15:05:23;13.80;99.90
16076;DHT22;8142;48.242;11.644;2023-03-24T15:07:58;13.70;99.90
16076;DHT22;8142;48.242;11.644;2023-03-24T15:10:25;13.80;99.90
16076;DHT22;8142;48.242;11.644;2023-03-24T15:12:52;13.80;99.90
16076;DHT22;8142;48.242;11.644;2023-03-24T15:15:21;13.70;99.90
16076;DHT22;8142;48.242;11.644;2023-03-24T15:17:48;13.70;99.90
16076;DHT22;8142;48.242;11.644;2023-03-24T15:20:33;13.70;99.90
16076;DHT22;8142;48.242;11.644;2023-03-24T15:23:06;13.70;99.90
16076;DHT22;8142;48.242;11.644;2023-03-24T15:25:32;13.70;99.90
16076;DHT22;8142;48.242;11.644;2023-03-24T15:27:58;13.70;99.90
16076;DHT22;8142;48.242;11.644;2023-03-24T15:30:24;13.70;99.90
16076;DHT22;8142;48.242;11.644;2023-03-24T15:32:51;13.60;99.90
16076;DHT22;8142;48.242;11.644;2023-03-24T15:35:22;13.60;99.90
16076;DHT22;8142;48.242;11.644;2023-03-24T15:37:55;13.60;99.90
16076;DHT22;8142;48.242;11.644;2023-03-24T15:43:13;13.50;99.90
16076;DHT22;8142;48.242;11.644;2023-03-24T15:45:48;13.50;99.90
16076;DHT22;8142;48.242;11.644;2023-03-24T15:48:21;13.40;99.90
16076;DHT22;8142;48.242;11.644;2023-03-24T15:51:00;13.40;99.90
16076;DHT22;8142;48.242;11.644;2023-03-24T15:53:53;13.30;99.90
16076;DHT22;8142;48.242;11.644;2023-03-24T15:56:25;13.30;99.90
16076;DHT22;8142;48.242;11.644;2023-03-24T15:59:13;13.30;99.90
16076;DHT22;8142;48.242;11.644;2023-03-24T16:01:40;13.20;99.90
16076;DHT22;8142;48.242;11.644;2023-03-24T16:04:16;13.20;99.90
16076;DHT22;8142;48.242;11.644;2023-03-24T16:06:47;13.20;99.90
16076;DHT22;8142;48.242;11.644;2023-03-24T16:09:16;13.10;99.90
16076;DHT22;8142;48.242;11.644;2023-03-24T16:11:46;13.10;99.90
16076;DHT22;8142;48.242;11.644;2023-03-24T16:14:27;13.10;99.90
16076;DHT22;8142;48.242;11.644;2023-03-24T16:16:56;13.10;99.90
16076;DHT22;8142;48.242;11.644;2023-03-24T16:19:22;13.00;99.90
16076;DHT22;8142;48.242;11.644;2023-03-24T16:21:48;12.90;99.90
16076;DHT22;8142;48.242;11.644;2023-03-24T16:24:14;12.90;99.90
16076;DHT22;8142;48.242;11.644;2023-03-24T16:26:40;12.90;99.90
16076;DHT22;8142;48.242;11.644;2023-03-24T16:29:14;12.80;99.90
16076;DHT22;8142;48.242;11.644;2023-03-24T16:31:45;12.60;99.90
16076;DHT22;8142;48.242;11.644;2023-03-24T16:34:14;12.70;99.90
16076;DHT22;8142;48.242;11.644;2023-03-24T16:36:40;12.60;99.90
16076;DHT22;8142;48.242;11.644;2023-03-24T16:39:13;12.60;99.90
16076;DHT22;8142;48.242;11.644;2023-03-24T16:41:41;12.50;99.90
16076;DHT22;8142;48.242;11.644;2023-03-24T16:44:07;12.50;99.90
16076;DHT22;8142;48.242;11.644;2023-03-24T16:46:34;12.40;99.90
16076;DHT22;8142;48.242;11.644;2023-03-24T16:49:03;12.40;99.90
16076;DHT22;8142;48.242;11.644;2023-03-24T16:51:29;12.30;99.90
16076;DHT22;8142;48.242;11.644;2023-03-24T16:53:55;12.30;99.90
16076;DHT22;8142;48.242;11.644;2023-03-24T16:56:22;12.30;99.90
16076;DHT22;8142;48.242;11.644;2023-03-24T16:58:49;12.20;99.90
16076;DHT22;8142;48.242;11.644;2023-03-24T17:03:56;12.20;99.90
16076;DHT22;8142;48.242;11.644;2023-03-24T17:06:23;12.20;99.90
16076;DHT22;8142;48.242;11.644;2023-03-24T17:08:49;12.10;99.90
16076;DHT22;8142;48.242;11.644;2023-03-24T17:13:53;12.10;99.90
16076;DHT22;8142;48.242;11.644;2023-03-24T17:16:19;12.10;99.90
16076;DHT22;8142;48.242;11.644;2023-03-24T17:18:45;12.00;99.90
16076;DHT22;8142;48.242;11.644;2023-03-24T17:21:13;12.00;99.90
16076;DHT22;8142;48.242;11.644;2023-03-24T17:23:41;12.00;99.90
16076;DHT22;8142;48.242;11.644;2023-03-24T17:26:07;11.90;99.90
16076;DHT22;8142;48.242;11.644;2023-03-24T17:28:33;11.90;99.90
16076;DHT22;8142;48.242;11.644;2023-03-24T17:30:58;11.90;99.90
16076;DHT22;8142;48.242;11.644;2023-03-24T17:33:25;11.80;99.90
16076;DHT22;8142;48.242;11.644;2023-03-24T17:35:50;11.70;99.90
16076;DHT22;8142;48.242;11.644;2023-03-24T17:38:17;11.70;99.90
16076;DHT22;8142;48.242;11.644;2023-03-24T17:40:44;11.60;99.90
16076;DHT22;8142;48.242;11.644;2023-03-24T17:43:11;11.60;99.90
16076;DHT22;8142;48.242;11.644;2023-03-24T17:45:39;11.40;99.90
16076;DHT22;8142;48.242;11.644;2023-03-24T17:48:05;11.40;99.90
16076;DHT22;8142;48.242;11.644;2023-03-24T17:50:32;11.40;99.90
16076;DHT22;8142;48.242;11.644;2023-03-24T17:52:58;11.30;99.90
16076;DHT22;8142;48.242;11.644;2023-03-24T17:55:25;11.30;99.90
16076;DHT22;8142;48.242;11.644;2023-03-24T17:57:51;11.30;99.90
16076;DHT22;8142;48.242;11.644;2023-03-24T18:00:17;11.30;99.90
16076;DHT22;8142;48.242;11.644;2023-03-24T18:02:43;11.40;99.90
16076;DHT22;8142;48.242;11.644;2023-03-24T18:05:10;11.40;99.90
16076;DHT22;8142;48.242;11.644;2023-03-24T18:07:38;11.40;99.90
16076;DHT22;8142;48.242;11.644;2023-03-24T18:10:05;11.40;99.90
16076;DHT22;8142;48.242;11.644;2023-03-24T18:12:31;11.40;99.90
16076;DHT22;8142;48.242;11.644;2023-03-24T18:14:57;11.40;99.90
16076;DHT22;8142;48.242;11.644;2023-03-24T18:17:22;11.50;99.90
16076;DHT22;8142;48.242;11.644;2023-03-24T18:19:48;11.50;99.90
16076;DHT22;8142;48.242;11.644;2023-03-24T18:22:15;11.50;99.90
16076;DHT22;8142;48.242;11.644;2023-03-24T18:24:41;11.50;99.90
16076;DHT22;8142;48.242;11.644;2023-03-24T18:27:07;11.50;99.90
16076;DHT22;8142;48.242;11.644;2023-03-24T18:29:35;11.50;99.90
16076;DHT22;8142;48.242;11.644;2023-03-24T18:32:03;11.50;99.90